sensor_id;sensor_type;location;lat;lon;timestamp;pressure;altitude;pressure_sealevel;temperature;humidity
41654;BME280;68687;52.030;7.110;2023-10-31T00:02:23;98582.03;;;12.27;100.00
41654;BME280;68687;52.030;7.110;2023-10-31T00:04:48;98576.09;;;12.25;100.00
41654;BME280;68687;52.030;7.110;2023-10-31T00:07:13;98571.28;;;12.27;100.00
41654;BME280;68687;52.030;7.110;2023-10-31T00:09:39;98570.31;;;12.33;100.00
41654;BME280;68687;52.030;7.110;2023-10-31T00:12:05;98579.22;;;12.33;100.00
41654;BME280;68687;52.030;7.110;2023-10-31T00:14:30;98569.31;;;12.22;100.00
41654;BME280;68687;52.030;7.110;2023-10-31T00:16:55;98567.72;;;12.38;100.00
41654;BME280;68687;52.030;7.110;2023-10-31T00:19:21;98566.09;;;12.37;100.00
41654;BME280;68687;52.030;7.110;2023-10-31T00:21:46;98566.56;;;12.34;100.00
41654;BME280;68687;52.030;7.110;2023-10-31T00:24:11;98569.66;;;12.43;100.00
41654;BME280;68687;52.030;7.110;2023-10-31T00:26:37;98567.84;;;12.31;100.00
41654;BME280;68687;52.030;7.110;2023-10-31T00:29:02;98569.84;;;12.36;100.00
41654;BME280;68687;52.030;7.110;2023-10-31T00:31:27;98559.78;;;12.31;100.00
41654;BME280;68687;52.030;7.110;2023-10-31T00:33:53;98567.72;;;12.38;100.00
41654;BME280;68687;52.030;7.110;2023-10-31T00:36:18;98565.75;;;12.33;100.00
41654;BME280;68687;52.030;7.110;2023-10-31T00:38:43;98572.91;;;12.28;100.00
41654;BME280;68687;52.030;7.110;2023-10-31T00:41:09;98566.97;;;12.26;100.00
41654;BME280;68687;52.030;7.110;2023-10-31T00:43:34;98562.00;;;12.18;100.00
41654;BME280;68687;52.030;7.110;2023-10-31T00:46:02;98573.41;;;12.25;100.00
41654;BME280;68687;52.030;7.110;2023-10-31T00:48:27;98576.84;;;12.37;100.00
41654;BME280;68687;52.030;7.110;2023-10-31T00:50:52;98576.28;;;12.35;100.00
41654;BME280;68687;52.030;7.110;2023-10-31T00:53:17;98576.97;;;12.30;100.00
41654;BME280;68687;52.030;7.110;2023-10-31T00:55:43;98570.72;;;12.25;100.00
41654;BME280;68687;52.030;7.110;2023-10-31T00:58:09;98566.97;;;12.26;100.00
41654;BME280;68687;52.030;7.110;2023-10-31T01:00:34;98573.72;;;12.28;100.00
41654;BME280;68687;52.030;7.110;2023-10-31T01:03:02;98561.00;;;12.24;100.00
41654;BME280;68687;52.030;7.110;2023-10-31T01:05:28;98570.53;;;12.31;100.00
41654;BME280;68687;52.030;7.110;2023-10-31T01:07:54;98569.09;;;12.24;100.00
41654;BME280;68687;52.030;7.110;2023-10-31T01:10:19;98578.28;;;12.28;100.00
41654;BME280;68687;52.030;7.110;2023-10-31T01:12:45;98587.41;;;12.27;100.00
41654;BME280;68687;52.030;7.110;2023-10-31T01:15:10;98576.59;;;12.22;100.00
41654;BME280;68687;52.030;7.110;2023-10-31T01:17:35;98580.41;;;12.26;100.00
41654;BME280;68687;52.030;7.110;2023-10-31T01:20:00;98593.69;;;12.16;100.00
41654;BME280;68687;52.030;7.110;2023-10-31T01:22:26;98596.72;;;12.19;100.00
41654;BME280;68687;52.030;7.110;2023-10-31T01:24:51;98611.88;;;12.09;100.00
41654;BME280;68687;52.030;7.110;2023-10-31T01:27:17;98597.00;;;11.89;100.00
41654;BME280;68687;52.030;7.110;2023-10-31T01:29:42;98614.75;;;11.90;100.00
41654;BME280;68687;52.030;7.110;2023-10-31T01:32:07;98622.16;;;11.71;100.00
41654;BME280;68687;52.030;7.110;2023-10-31T01:34:33;98619.84;;;11.63;100.00
41654;BME280;68687;52.030;7.110;2023-10-31T01:36:58;98639.72;;;11.62;100.00
41654;BME280;68687;52.030;7.110;2023-10-31T01:39:24;98644.91;;;11.52;100.00
41654;BME280;68687;52.030;7.110;2023-10-31T01:41:49;98656.91;;;11.50;100.00
41654;BME280;68687;52.030;7.110;2023-10-31T01:44:14;98660.81;;;11.30;100.00
41654;BME280;68687;52.030;7.110;2023-10-31T01:46:39;98673.44;;;11.06;100.00
41654;BME280;68687;52.030;7.110;2023-10-31T01:49:05;98675.09;;;10.96;100.00
41654;BME280;68687;52.030;7.110;2023-10-31T01:51:30;98687.09;;;10.81;100.00
41654;BME280;68687;52.030;7.110;2023-10-31T01:53:56;98712.97;;;10.64;100.00
41654;BME280;68687;52.030;7.110;2023-10-31T01:56:22;98702.19;;;10.41;100.00
41654;BME280;68687;52.030;7.110;2023-10-31T01:58:48;98718.00;;;10.31;100.00
41654;BME280;68687;52.030;7.110;2023-10-31T02:01:14;98715.19;;;10.26;100.00
41654;BME280;68687;52.030;7.110;2023-10-31T02:03:39;98727.56;;;10.27;100.00
41654;BME280;68687;52.030;7.110;2023-10-31T02:06:05;98730.31;;;10.20;100.00
41654;BME280;68687;52.030;7.110;2023-10-31T02:08:30;98728.38;;;10.09;100.00
41654;BME280;68687;52.030;7.110;2023-10-31T02:10:56;98741.06;;;10.02;100.00
41654;BME280;68687;52.030;7.110;2023-10-31T02:13:21;98755.56;;;10.12;100.00
41654;BME280;68687;52.030;7.110;2023-10-31T02:15:47;98768.38;;;10.10;100.00
41654;BME280;68687;52.030;7.110;2023-10-31T02:18:12;98777.31;;;10.04;100.00
41654;BME280;68687;52.030;7.110;2023-10-31T02:20:38;98788.63;;;10.06;100.00
41654;BME280;68687;52.030;7.110;2023-10-31T02:23:03;98793.41;;;10.04;100.00
41654;BME280;68687;52.030;7.110;2023-10-31T02:25:29;98810.22;;;10.11;100.00
41654;BME280;68687;52.030;7.110;2023-10-31T02:27:54;98798.47;;;9.94;100.00
41654;BME280;68687;52.030;7.110;2023-10-31T02:30:20;98804.28;;;9.91;100.00
41654;BME280;68687;52.030;7.110;2023-10-31T02:32:45;98810.38;;;9.98;100.00
41654;BME280;68687;52.030;7.110;2023-10-31T02:35:11;98821.56;;;9.95;100.00
41654;BME280;68687;52.030;7.110;2023-10-31T02:37:36;98808.88;;;9.84;100.00
41654;BME280;68687;52.030;7.110;2023-10-31T02:40:02;98822.59;;;9.94;100.00
41654;BME280;68687;52.030;7.110;2023-10-31T02:42:27;98818.72;;;9.90;100.00
41654;BME280;68687;52.030;7.110;2023-10-31T02:44:53;98822.44;;;9.89;100.00
41654;BME280;68687;52.030;7.110;2023-10-31T02:47:18;98825.28;;;9.94;100.00
41654;BME280;68687;52.030;7.110;2023-10-31T02:49:44;98831.69;;;9.93;100.00
41654;BME280;68687;52.030;7.110;2023-10-31T02:52:09;98834.88;;;10.02;100.00
41654;BME280;68687;52.030;7.110;2023-10-31T02:54:34;98832.72;;;9.92;100.00
41654;BME280;68687;52.030;7.110;2023-10-31T02:57:00;98836.00;;;9.94;100.00
41654;BME280;68687;52.030;7.110;2023-10-31T02:59:25;98843.16;;;10.00;100.00
41654;BME280;68687;52.030;7.110;2023-10-31T03:01:52;98849.19;;;9.96;100.00
41654;BME280;68687;52.030;7.110;2023-10-31T03:04:17;98842.84;;;9.90;100.00
41654;BME280;68687;52.030;7.110;2023-10-31T03:06:43;98847.16;;;9.91;100.00
41654;BME280;68687;52.030;7.110;2023-10-31T03:09:08;98850.94;;;9.83;100.00
41654;BME280;68687;52.030;7.110;2023-10-31T03:11:33;98839.84;;;9.80;100.00
41654;BME280;68687;52.030;7.110;2023-10-31T03:13:59;98865.03;;;9.97;100.00
41654;BME280;68687;52.030;7.110;2023-10-31T03:16:24;98864.50;;;9.88;100.00
41654;BME280;68687;52.030;7.110;2023-10-31T03:18:50;98850.44;;;9.93;100.00
41654;BME280;68687;52.030;7.110;2023-10-31T03:21:16;98870.84;;;9.94;100.00
41654;BME280;68687;52.030;7.110;2023-10-31T03:23:51;98864.06;;;9.91;100.00
41654;BME280;68687;52.030;7.110;2023-10-31T03:26:20;98875.31;;;10.00;100.00
41654;BME280;68687;52.030;7.110;2023-10-31T03:28:46;98876.88;;;9.89;100.00
41654;BME280;68687;52.030;7.110;2023-10-31T03:31:12;98873.25;;;9.77;100.00
41654;BME280;68687;52.030;7.110;2023-10-31T03:33:38;98881.13;;;9.97;100.00
41654;BME280;68687;52.030;7.110;2023-10-31T03:36:04;98873.06;;;9.97;100.00
41654;BME280;68687;52.030;7.110;2023-10-31T03:38:30;98865.75;;;9.86;100.00
41654;BME280;68687;52.030;7.110;2023-10-31T03:40:55;98879.34;;;9.91;100.00
41654;BME280;68687;52.030;7.110;2023-10-31T03:43:20;98873.50;;;9.76;100.00
41654;BME280;68687;52.030;7.110;2023-10-31T03:45:46;98898.75;;;9.86;100.00
41654;BME280;68687;52.030;7.110;2023-10-31T03:48:12;98899.72;;;9.92;100.00
41654;BME280;68687;52.030;7.110;2023-10-31T03:50:38;98888.63;;;9.88;100.00
41654;BME280;68687;52.030;7.110;2023-10-31T03:53:03;98898.34;;;9.83;100.00
41654;BME280;68687;52.030;7.110;2023-10-31T03:55:28;98881.41;;;9.89;100.00
41654;BME280;68687;52.030;7.110;2023-10-31T03:57:55;98900.59;;;9.86;100.00
41654;BME280;68687;52.030;7.110;2023-10-31T04:00:20;98891.69;;;9.92;100.00
41654;BME280;68687;52.030;7.110;2023-10-31T04:02:46;98887.19;;;9.86;100.00
41654;BME280;68687;52.030;7.110;2023-10-31T04:05:11;98909.41;;;9.93;100.00
41654;BME280;68687;52.030;7.110;2023-10-31T04:07:36;98900.81;;;9.84;100.00
41654;BME280;68687;52.030;7.110;2023-10-31T04:10:03;98904.72;;;9.88;100.00
41654;BME280;68687;52.030;7.110;2023-10-31T04:12:28;98902.78;;;9.96;100.00
41654;BME280;68687;52.030;7.110;2023-10-31T04:14:54;98891.69;;;9.92;100.00
41654;BME280;68687;52.030;7.110;2023-10-31T04:17:19;98898.69;;;9.93;100.00
41654;BME280;68687;52.030;7.110;2023-10-31T04:19:44;98893.56;;;9.91;100.00
41654;BME280;68687;52.030;7.110;2023-10-31T04:22:09;98904.94;;;9.87;100.00
41654;BME280;68687;52.030;7.110;2023-10-31T04:24:35;98897.72;;;9.87;100.00
41654;BME280;68687;52.030;7.110;2023-10-31T04:27:00;98915.66;;;9.87;100.00
41654;BME280;68687;52.030;7.110;2023-10-31T04:29:25;98897.91;;;9.86;100.00
41654;BME280;68687;52.030;7.110;2023-10-31T04:31:50;98911.41;;;9.98;100.00
41654;BME280;68687;52.030;7.110;2023-10-31T04:34:16;98899.13;;;9.90;100.00
41654;BME280;68687;52.030;7.110;2023-10-31T04:36:41;98900.69;;;9.98;100.00
41654;BME280;68687;52.030;7.110;2023-10-31T04:39:07;98906.88;;;9.98;100.00
41654;BME280;68687;52.030;7.110;2023-10-31T04:41:32;98890.97;;;9.78;100.00
41654;BME280;68687;52.030;7.110;2023-10-31T04:43:57;98911.31;;;9.86;100.00
41654;BME280;68687;52.030;7.110;2023-10-31T04:46:24;98909.56;;;9.98;100.00
41654;BME280;68687;52.030;7.110;2023-10-31T04:48:52;98897.28;;;9.90;100.00
41654;BME280;68687;52.030;7.110;2023-10-31T04:51:17;98907.78;;;9.92;100.00
41654;BME280;68687;52.030;7.110;2023-10-31T04:53:42;98907.78;;;9.92;100.00
41654;BME280;68687;52.030;7.110;2023-10-31T04:56:12;98921.47;;;10.02;100.00
41654;BME280;68687;52.030;7.110;2023-10-31T04:58:38;98917.59;;;9.98;100.00
41654;BME280;68687;52.030;7.110;2023-10-31T05:01:11;98921.25;;;10.04;100.00
41654;BME280;68687;52.030;7.110;2023-10-31T05:03:36;98911.66;;;9.96;100.00
41654;BME280;68687;52.030;7.110;2023-10-31T05:06:02;98923.03;;;10.10;100.00
41654;BME280;68687;52.030;7.110;2023-10-31T05:08:28;98925.66;;;9.98;100.00
41654;BME280;68687;52.030;7.110;2023-10-31T05:10:54;98924.47;;;10.12;100.00
41654;BME280;68687;52.030;7.110;2023-10-31T05:13:19;98935.78;;;9.96;100.00
41654;BME280;68687;52.030;7.110;2023-10-31T05:15:44;98937.34;;;10.04;100.00
41654;BME280;68687;52.030;7.110;2023-10-31T05:18:10;98929.44;;;9.90;100.00
41654;BME280;68687;52.030;7.110;2023-10-31T05:20:35;98938.81;;;10.00;100.00
41654;BME280;68687;52.030;7.110;2023-10-31T05:23:00;98935.53;;;9.98;100.00
41654;BME280;68687;52.030;7.110;2023-10-31T05:25:26;98942.31;;;10.00;100.00
41654;BME280;68687;52.030;7.110;2023-10-31T05:27:51;98947.75;;;9.94;100.00
41654;BME280;68687;52.030;7.110;2023-10-31T05:30:17;98956.03;;;9.92;100.00
41654;BME280;68687;52.030;7.110;2023-10-31T05:32:42;98945.75;;;9.89;100.00
41654;BME280;68687;52.030;7.110;2023-10-31T05:35:08;98969.56;;;9.97;100.00
41654;BME280;68687;52.030;7.110;2023-10-31T05:37:34;98968.81;;;9.90;100.00
41654;BME280;68687;52.030;7.110;2023-10-31T05:39:59;98962.22;;;9.86;100.00
41654;BME280;68687;52.030;7.110;2023-10-31T05:42:25;98976.25;;;9.88;100.00
41654;BME280;68687;52.030;7.110;2023-10-31T05:44:52;98991.47;;;9.94;100.00
41654;BME280;68687;52.030;7.110;2023-10-31T05:47:18;98999.34;;;9.89;100.00
41654;BME280;68687;52.030;7.110;2023-10-31T05:49:43;99016.25;;;9.89;100.00
41654;BME280;68687;52.030;7.110;2023-10-31T05:52:09;99010.47;;;9.86;100.00
41654;BME280;68687;52.030;7.110;2023-10-31T05:54:35;99018.94;;;9.83;100.00
41654;BME280;68687;52.030;7.110;2023-10-31T05:57:00;99009.34;;;9.75;100.00
41654;BME280;68687;52.030;7.110;2023-10-31T05:59:25;99014.84;;;9.80;100.00
41654;BME280;68687;52.030;7.110;2023-10-31T06:01:51;99032.41;;;9.76;100.00
41654;BME280;68687;52.030;7.110;2023-10-31T06:04:16;99032.53;;;9.88;100.00
41654;BME280;68687;52.030;7.110;2023-10-31T06:06:41;99038.75;;;9.82;100.00
41654;BME280;68687;52.030;7.110;2023-10-31T06:09:07;99051.34;;;9.81;100.00
41654;BME280;68687;52.030;7.110;2023-10-31T06:11:34;99044.72;;;9.84;100.00
41654;BME280;68687;52.030;7.110;2023-10-31T06:13:59;99058.16;;;9.77;100.00
41654;BME280;68687;52.030;7.110;2023-10-31T06:16:25;99052.81;;;9.77;100.00
41654;BME280;68687;52.030;7.110;2023-10-31T06:18:50;99060.03;;;9.77;100.00
41654;BME280;68687;52.030;7.110;2023-10-31T06:21:15;99068.31;;;9.69;100.00
41654;BME280;68687;52.030;7.110;2023-10-31T06:23:40;99063.31;;;9.79;100.00
41654;BME280;68687;52.030;7.110;2023-10-31T06:26:07;99072.38;;;9.78;100.00
41654;BME280;68687;52.030;7.110;2023-10-31T06:28:33;99050.69;;;9.54;100.00
41654;BME280;68687;52.030;7.110;2023-10-31T06:31:00;99076.16;;;9.70;100.00
41654;BME280;68687;52.030;7.110;2023-10-31T06:33:26;99084.25;;;9.64;100.00
41654;BME280;68687;52.030;7.110;2023-10-31T06:35:52;99076.63;;;9.60;100.00
41654;BME280;68687;52.030;7.110;2023-10-31T06:38:18;99083.38;;;9.70;100.00
41654;BME280;68687;52.030;7.110;2023-10-31T06:40:44;99090.63;;;9.63;100.00
41654;BME280;68687;52.030;7.110;2023-10-31T06:43:09;99101.53;;;9.68;100.00
41654;BME280;68687;52.030;7.110;2023-10-31T06:45:35;99100.31;;;9.64;100.00
41654;BME280;68687;52.030;7.110;2023-10-31T06:48:00;99111.19;;;9.69;100.00
41654;BME280;68687;52.030;7.110;2023-10-31T06:50:25;99101.31;;;9.69;100.00
41654;BME280;68687;52.030;7.110;2023-10-31T06:52:51;99119.66;;;9.66;100.00
41654;BME280;68687;52.030;7.110;2023-10-31T06:55:16;99106.78;;;9.81;100.00
41654;BME280;68687;52.030;7.110;2023-10-31T06:57:41;99119.19;;;9.75;100.00
41654;BME280;68687;52.030;7.110;2023-10-31T07:00:08;99118.16;;;9.76;100.00
41654;BME280;68687;52.030;7.110;2023-10-31T07:02:34;99121.22;;;9.80;100.00
41654;BME280;68687;52.030;7.110;2023-10-31T07:04:59;99123.31;;;9.78;100.00
41654;BME280;68687;52.030;7.110;2023-10-31T07:07:25;99118.59;;;9.73;100.00
41654;BME280;68687;52.030;7.110;2023-10-31T07:09:50;99133.38;;;9.82;100.00
41654;BME280;68687;52.030;7.110;2023-10-31T07:12:15;99129.31;;;9.73;100.00
41654;BME280;68687;52.030;7.110;2023-10-31T07:14:41;99136.25;;;9.87;100.00
41654;BME280;68687;52.030;7.110;2023-10-31T07:17:06;99135.84;;;9.84;100.00
41654;BME280;68687;52.030;7.110;2023-10-31T07:19:31;99130.53;;;9.77;100.00
41654;BME280;68687;52.030;7.110;2023-10-31T07:21:56;99144.69;;;9.84;100.00
41654;BME280;68687;52.030;7.110;2023-10-31T07:24:22;99123.72;;;9.75;100.00
41654;BME280;68687;52.030;7.110;2023-10-31T07:26:47;99147.31;;;9.98;100.00
41654;BME280;68687;52.030;7.110;2023-10-31T07:29:12;99149.94;;;10.04;100.00
41654;BME280;68687;52.030;7.110;2023-10-31T07:31:37;99142.91;;;10.10;100.00
41654;BME280;68687;52.030;7.110;2023-10-31T07:34:04;99140.78;;;10.18;100.00
41654;BME280;68687;52.030;7.110;2023-10-31T07:36:30;99143.69;;;10.17;100.00
41654;BME280;68687;52.030;7.110;2023-10-31T07:38:57;99144.50;;;10.17;100.00
41654;BME280;68687;52.030;7.110;2023-10-31T07:41:22;99144.31;;;10.19;100.00
41654;BME280;68687;52.030;7.110;2023-10-31T07:43:47;99158.06;;;10.29;100.00
41654;BME280;68687;52.030;7.110;2023-10-31T07:46:13;99137.91;;;10.13;100.00
41654;BME280;68687;52.030;7.110;2023-10-31T07:48:38;99150.41;;;10.33;100.00
41654;BME280;68687;52.030;7.110;2023-10-31T07:51:03;99147.13;;;10.31;100.00
41654;BME280;68687;52.030;7.110;2023-10-31T07:53:29;99149.75;;;10.37;100.00
41654;BME280;68687;52.030;7.110;2023-10-31T07:55:54;99148.63;;;10.51;100.00
41654;BME280;68687;52.030;7.110;2023-10-31T07:58:19;99159.63;;;10.43;100.00
41654;BME280;68687;52.030;7.110;2023-10-31T08:00:45;99143.94;;;10.40;100.00
41654;BME280;68687;52.030;7.110;2023-10-31T08:03:10;99158.91;;;10.55;100.00
41654;BME280;68687;52.030;7.110;2023-10-31T08:05:36;99161.81;;;10.78;100.00
41654;BME280;68687;52.030;7.110;2023-10-31T08:08:01;99160.59;;;10.99;100.00
41654;BME280;68687;52.030;7.110;2023-10-31T08:10:27;99155.53;;;11.09;100.00
41654;BME280;68687;52.030;7.110;2023-10-31T08:12:52;99172.22;;;11.66;100.00
41654;BME280;68687;52.030;7.110;2023-10-31T08:15:17;99170.31;;;11.55;100.00
41654;BME280;68687;52.030;7.110;2023-10-31T08:17:43;99174.63;;;11.37;100.00
41654;BME280;68687;52.030;7.110;2023-10-31T08:20:09;99167.91;;;11.10;100.00
41654;BME280;68687;52.030;7.110;2023-10-31T08:22:36;99186.22;;;10.95;100.00
41654;BME280;68687;52.030;7.110;2023-10-31T08:25:02;99184.38;;;10.70;100.00
41654;BME280;68687;52.030;7.110;2023-10-31T08:27:27;99186.34;;;10.81;100.00
41654;BME280;68687;52.030;7.110;2023-10-31T08:29:53;99181.41;;;10.78;100.00
41654;BME280;68687;52.030;7.110;2023-10-31T08:32:18;99190.44;;;10.84;100.00
41654;BME280;68687;52.030;7.110;2023-10-31T08:34:44;99190.50;;;10.77;100.00
41654;BME280;68687;52.030;7.110;2023-10-31T08:37:09;99182.03;;;10.80;100.00
41654;BME280;68687;52.030;7.110;2023-10-31T08:39:35;99187.09;;;10.89;100.00
41654;BME280;68687;52.030;7.110;2023-10-31T08:42:00;99190.66;;;10.82;100.00
41654;BME280;68687;52.030;7.110;2023-10-31T08:44:25;99191.72;;;10.81;100.00
41654;BME280;68687;52.030;7.110;2023-10-31T08:46:50;99192.47;;;10.89;100.00
41654;BME280;68687;52.030;7.110;2023-10-31T08:49:16;99200.53;;;10.89;100.00
41654;BME280;68687;52.030;7.110;2023-10-31T08:51:42;99197.16;;;10.93;100.00
41654;BME280;68687;52.030;7.110;2023-10-31T08:54:07;99200.38;;;10.83;100.00
41654;BME280;68687;52.030;7.110;2023-10-31T08:56:34;99211.41;;;10.94;100.00
41654;BME280;68687;52.030;7.110;2023-10-31T08:58:59;99211.31;;;11.07;100.00
41654;BME280;68687;52.030;7.110;2023-10-31T09:01:24;99209.78;;;10.93;100.00
41654;BME280;68687;52.030;7.110;2023-10-31T09:03:50;99218.09;;;11.09;100.00
41654;BME280;68687;52.030;7.110;2023-10-31T09:06:15;99226.91;;;11.17;100.00
41654;BME280;68687;52.030;7.110;2023-10-31T09:08:40;99218.78;;;11.05;100.00
41654;BME280;68687;52.030;7.110;2023-10-31T09:11:06;99237.28;;;11.13;100.00
41654;BME280;68687;52.030;7.110;2023-10-31T09:13:32;99233.41;;;11.09;100.00
41654;BME280;68687;52.030;7.110;2023-10-31T09:15:58;99239.06;;;11.19;100.00
41654;BME280;68687;52.030;7.110;2023-10-31T09:18:23;99232.06;;;11.18;100.00
41654;BME280;68687;52.030;7.110;2023-10-31T09:20:49;99234.31;;;11.21;100.00
41654;BME280;68687;52.030;7.110;2023-10-31T09:23:14;99240.47;;;11.28;100.00
41654;BME280;68687;52.030;7.110;2023-10-31T09:25:40;99236.28;;;11.32;100.00
41654;BME280;68687;52.030;7.110;2023-10-31T09:28:05;99251.75;;;11.55;100.00
41654;BME280;68687;52.030;7.110;2023-10-31T09:30:31;99254.13;;;11.45;100.00
41654;BME280;68687;52.030;7.110;2023-10-31T09:32:56;99260.91;;;11.48;100.00
41654;BME280;68687;52.030;7.110;2023-10-31T09:35:22;99271.19;;;11.32;100.00
41654;BME280;68687;52.030;7.110;2023-10-31T09:37:47;99278.81;;;11.35;100.00
41654;BME280;68687;52.030;7.110;2023-10-31T09:40:14;99271.34;;;11.37;100.00
41654;BME280;68687;52.030;7.110;2023-10-31T09:42:39;99272.84;;;11.33;100.00
41654;BME280;68687;52.030;7.110;2023-10-31T09:45:05;99272.31;;;11.25;100.00
41654;BME280;68687;52.030;7.110;2023-10-31T09:47:31;99275.69;;;11.38;100.00
41654;BME280;68687;52.030;7.110;2023-10-31T09:49:58;99290.75;;;11.39;100.00
41654;BME280;68687;52.030;7.110;2023-10-31T09:52:23;99288.19;;;11.51;100.00
41654;BME280;68687;52.030;7.110;2023-10-31T09:54:49;99296.44;;;11.50;100.00
41654;BME280;68687;52.030;7.110;2023-10-31T09:57:14;99297.81;;;11.59;100.00
41654;BME280;68687;52.030;7.110;2023-10-31T09:59:42;99287.50;;;11.56;100.00
41654;BME280;68687;52.030;7.110;2023-10-31T10:02:07;99299.31;;;11.55;100.00
41654;BME280;68687;52.030;7.110;2023-10-31T10:04:33;99309.59;;;11.58;100.00
41654;BME280;68687;52.030;7.110;2023-10-31T10:07:00;99312.72;;;11.80;100.00
41654;BME280;68687;52.030;7.110;2023-10-31T10:09:26;99316.84;;;11.82;100.00
41654;BME280;68687;52.030;7.110;2023-10-31T10:11:52;99312.50;;;11.81;100.00
41654;BME280;68687;52.030;7.110;2023-10-31T10:14:18;99316.38;;;11.85;100.00
41654;BME280;68687;52.030;7.110;2023-10-31T10:16:44;99326.47;;;11.90;100.00
41654;BME280;68687;52.030;7.110;2023-10-31T10:19:20;99334.63;;;11.83;100.00
41654;BME280;68687;52.030;7.110;2023-10-31T10:21:47;99342.75;;;11.95;100.00
41654;BME280;68687;52.030;7.110;2023-10-31T10:24:14;99334.00;;;11.99;100.00
41654;BME280;68687;52.030;7.110;2023-10-31T10:26:39;99340.16;;;12.06;100.00
41654;BME280;68687;52.030;7.110;2023-10-31T10:29:04;99346.72;;;11.92;100.00
41654;BME280;68687;52.030;7.110;2023-10-31T10:31:30;99349.47;;;11.86;100.00
41654;BME280;68687;52.030;7.110;2023-10-31T10:33:55;99351.97;;;12.05;100.00
41654;BME280;68687;52.030;7.110;2023-10-31T10:36:21;99347.22;;;12.01;100.00
41654;BME280;68687;52.030;7.110;2023-10-31T10:38:51;99346.28;;;12.14;100.00
41654;BME280;68687;52.030;7.110;2023-10-31T10:41:21;99360.91;;;12.18;100.00
41654;BME280;68687;52.030;7.110;2023-10-31T10:43:49;99368.81;;;12.31;100.00
41654;BME280;68687;52.030;7.110;2023-10-31T10:46:15;99369.03;;;12.48;100.00
41654;BME280;68687;52.030;7.110;2023-10-31T10:48:46;99351.94;;;12.42;100.00
41654;BME280;68687;52.030;7.110;2023-10-31T10:51:17;99374.78;;;12.69;100.00
41654;BME280;68687;52.030;7.110;2023-10-31T10:53:49;99374.69;;;12.58;100.00
41654;BME280;68687;52.030;7.110;2023-10-31T10:56:31;99377.91;;;12.66;100.00
41654;BME280;68687;52.030;7.110;2023-10-31T11:01:24;99370.34;;;12.75;100.00
41654;BME280;68687;52.030;7.110;2023-10-31T11:03:51;99379.00;;;13.07;100.00
41654;BME280;68687;52.030;7.110;2023-10-31T11:06:18;99381.38;;;14.04;100.00
41654;BME280;68687;52.030;7.110;2023-10-31T11:08:44;99365.78;;;13.82;100.00
41654;BME280;68687;52.030;7.110;2023-10-31T11:11:10;99380.28;;;13.58;100.00
41654;BME280;68687;52.030;7.110;2023-10-31T11:13:36;99378.03;;;13.32;100.00
41654;BME280;68687;52.030;7.110;2023-10-31T11:16:06;99387.75;;;13.33;100.00
41654;BME280;68687;52.030;7.110;2023-10-31T11:18:34;99381.06;;;13.23;100.00
41654;BME280;68687;52.030;7.110;2023-10-31T11:21:00;99385.31;;;13.13;100.00
41654;BME280;68687;52.030;7.110;2023-10-31T11:23:27;99388.72;;;13.08;100.00
41654;BME280;68687;52.030;7.110;2023-10-31T11:25:52;99384.94;;;13.27;100.00
41654;BME280;68687;52.030;7.110;2023-10-31T11:28:19;99390.50;;;13.91;100.00
41654;BME280;68687;52.030;7.110;2023-10-31T11:30:50;99384.06;;;14.67;99.09
41654;BME280;68687;52.030;7.110;2023-10-31T11:33:20;99390.69;;;14.48;95.68
41654;BME280;68687;52.030;7.110;2023-10-31T11:35:50;99390.63;;;14.08;97.33
41654;BME280;68687;52.030;7.110;2023-10-31T11:38:15;99397.06;;;13.83;98.35
41654;BME280;68687;52.030;7.110;2023-10-31T11:43:15;99405.97;;;13.49;100.00
41654;BME280;68687;52.030;7.110;2023-10-31T11:45:44;99404.28;;;13.36;98.68
41654;BME280;68687;52.030;7.110;2023-10-31T11:48:12;99408.03;;;13.23;99.70
41654;BME280;68687;52.030;7.110;2023-10-31T11:50:38;99413.28;;;13.18;100.00
41654;BME280;68687;52.030;7.110;2023-10-31T11:53:12;99413.31;;;13.12;99.71
41654;BME280;68687;52.030;7.110;2023-10-31T11:55:45;99419.03;;;13.04;100.00
41654;BME280;68687;52.030;7.110;2023-10-31T11:58:24;99416.44;;;12.97;100.00
41654;BME280;68687;52.030;7.110;2023-10-31T12:01:02;99422.59;;;12.86;100.00
41654;BME280;68687;52.030;7.110;2023-10-31T12:03:37;99424.41;;;12.92;100.00
41654;BME280;68687;52.030;7.110;2023-10-31T12:06:03;99418.13;;;12.80;100.00
41654;BME280;68687;52.030;7.110;2023-10-31T12:08:34;99426.84;;;12.63;100.00
41654;BME280;68687;52.030;7.110;2023-10-31T12:11:08;99430.13;;;12.65;100.00
41654;BME280;68687;52.030;7.110;2023-10-31T12:13:36;99435.66;;;12.71;100.00
41654;BME280;68687;52.030;7.110;2023-10-31T12:16:02;99432.03;;;12.77;100.00
41654;BME280;68687;52.030;7.110;2023-10-31T12:18:28;99437.22;;;12.60;100.00
41654;BME280;68687;52.030;7.110;2023-10-31T12:20:54;99443.88;;;12.57;100.00
41654;BME280;68687;52.030;7.110;2023-10-31T12:23:19;99441.16;;;12.57;100.00
41654;BME280;68687;52.030;7.110;2023-10-31T12:25:48;99440.88;;;12.65;100.00
41654;BME280;68687;52.030;7.110;2023-10-31T12:28:32;99427.72;;;12.76;100.00
41654;BME280;68687;52.030;7.110;2023-10-31T12:30:58;99446.06;;;12.97;100.00
41654;BME280;68687;52.030;7.110;2023-10-31T12:33:26;99447.22;;;12.89;100.00
41654;BME280;68687;52.030;7.110;2023-10-31T12:35:58;99459.63;;;12.90;100.00
41654;BME280;68687;52.030;7.110;2023-10-31T12:38:24;99448.69;;;12.85;100.00
41654;BME280;68687;52.030;7.110;2023-10-31T12:40:50;99444.22;;;12.79;100.00
41654;BME280;68687;52.030;7.110;2023-10-31T12:43:16;99440.88;;;12.65;100.00
41654;BME280;68687;52.030;7.110;2023-10-31T12:45:42;99429.13;;;12.60;100.00
41654;BME280;68687;52.030;7.110;2023-10-31T12:48:09;99436.56;;;12.46;100.00
41654;BME280;68687;52.030;7.110;2023-10-31T12:50:36;99439.91;;;12.60;100.00
41654;BME280;68687;52.030;7.110;2023-10-31T12:53:08;99436.25;;;12.36;100.00